Lamy, New Mexico
Current Conditions -  °F | °C
As of 7:53 PM on Friday 24 Oct 2014 (Local Time) from KSAF Reporting Station
Clear Clear  
Wind Chill: 60°   Ceiling: Unl
Heat Index: 60°   Visibility: 10mi
Dew Point: 27°   Wind: 6mph
Humidity: 28%   Direction: 360°N
Pressure: 30.29"   Gusts: NA
Location:  35.48°N, 105.88°W
Report Text: KSAF 250153Z AUTO 36005KT 10SM CLR 16/M03 A3029 RMK AO2 SLP196 T01561028
Loading
Personal Weather Stations






























Interactive Weather Map
Tropical Storm Tracking
New forecast layout! Learn more

10-Day Weather Forecast

Advertisements
Track Severe Weather on mobile